createdAt,value
2022-09-28T00:00:11.607Z,1.30
2022-09-28T00:03:15.143Z,1.15
2022-09-28T00:06:21.223Z,1.40
2022-09-28T00:09:24.119Z,0.87
2022-09-28T00:12:28.328Z,0.85
2022-09-28T00:15:31.939Z,0.90
2022-09-28T00:18:36.251Z,1.00
2022-09-28T00:21:40.461Z,0.87
2022-09-28T00:24:43.283Z,1.00
2022-09-28T00:27:50.444Z,0.80
2022-09-28T00:30:56.602Z,1.02
2022-09-28T00:34:00.581Z,0.80
2022-09-28T00:37:04.962Z,1.10
2022-09-28T00:40:07.938Z,1.33
2022-09-28T00:43:20.695Z,1.10
2022-09-28T00:46:32.553Z,1.40
2022-09-28T00:49:50.877Z,0.95
2022-09-28T00:52:57.691Z,1.10
2022-09-28T00:56:07.544Z,0.90
2022-09-28T00:59:10.936Z,1.15
2022-09-28T01:02:14.207Z,0.75
2022-09-28T01:05:24.810Z,1.30
2022-09-28T01:08:30.138Z,1.10
2022-09-28T01:11:34.915Z,0.97
2022-09-28T01:14:39.974Z,1.12
2022-09-28T01:18:04.396Z,1.30
2022-09-28T01:21:19.374Z,1.08
2022-09-28T01:24:41.146Z,0.83
2022-09-28T01:27:52.638Z,1.03
2022-09-28T01:31:13.165Z,1.10
2022-09-28T01:34:40.038Z,1.27
2022-09-28T01:37:54.936Z,0.90
2022-09-28T01:40:59.960Z,1.10
2022-09-28T01:44:05.032Z,1.00
2022-09-28T01:47:09.656Z,1.05
2022-09-28T01:50:16.251Z,1.00
2022-09-28T01:53:26.208Z,1.10
2022-09-28T01:56:36.995Z,1.27
2022-09-28T01:59:44.540Z,1.20
2022-09-28T02:02:57.425Z,1.50
2022-09-28T02:06:08.374Z,1.20
2022-09-28T02:09:22.696Z,1.75
2022-09-28T02:12:41.717Z,1.23
2022-09-28T02:16:00.484Z,1.53
2022-09-28T02:19:06.199Z,1.50
2022-09-28T02:22:15.032Z,1.20
2022-09-28T02:25:39.792Z,1.02
2022-09-28T02:28:43.211Z,1.30
2022-09-28T02:31:46.618Z,1.07
2022-09-28T02:34:49.946Z,1.40
2022-09-28T02:37:55.127Z,1.60
2022-09-28T02:41:32.109Z,1.37
2022-09-28T02:45:00.618Z,3.07
2022-09-28T02:48:19.128Z,1.93
2022-09-28T02:51:36.550Z,1.80
2022-09-28T02:54:46.011Z,1.85
2022-09-28T02:58:27.548Z,1.58
2022-09-28T03:01:38.811Z,1.50
2022-09-28T03:04:52.588Z,1.23
2022-09-28T03:08:09.740Z,1.67
2022-09-28T03:11:22.854Z,1.20
2022-09-28T03:14:26.658Z,1.45
2022-09-28T03:17:31.697Z,1.40
2022-09-28T03:20:37.322Z,1.40
2022-09-28T03:23:40.968Z,1.23
2022-09-28T03:26:45.308Z,1.65
2022-09-28T03:29:48.996Z,1.60
2022-09-28T03:33:00.844Z,1.47
2022-09-28T03:36:06.889Z,1.50
2022-09-28T03:39:09.614Z,1.42
2022-09-28T03:42:13.898Z,1.30
2022-09-28T03:45:17.388Z,1.50
2022-09-28T03:48:32.403Z,1.40
2022-09-28T03:51:35.921Z,1.20
2022-09-28T03:54:39.204Z,1.12
2022-09-28T03:57:42.193Z,1.20
2022-09-28T04:00:45.243Z,1.27
2022-09-28T04:03:59.031Z,1.27
2022-09-28T04:07:02.205Z,1.27
2022-09-28T04:10:11.011Z,1.10
2022-09-28T04:13:15.402Z,1.40
2022-09-28T04:16:19.591Z,1.37
2022-09-28T04:19:24.251Z,1.20
2022-09-28T04:22:28.337Z,1.30
2022-09-28T04:25:31.109Z,1.58
2022-09-28T04:28:54.161Z,1.52
2022-09-28T04:31:57.175Z,2.87
2022-09-28T04:35:03.227Z,2.60
2022-09-28T04:38:06.085Z,2.83
2022-09-28T04:41:10.329Z,1.90
2022-09-28T04:44:15.051Z,2.20
2022-09-28T04:47:20.159Z,1.80
2022-09-28T04:50:33.240Z,1.50
2022-09-28T04:53:43.796Z,1.90
2022-09-28T04:56:47.921Z,1.45
2022-09-28T04:59:51.910Z,3.00
2022-09-28T05:02:56.343Z,6.10
2022-09-28T05:06:00.336Z,7.43
2022-09-28T05:09:03.151Z,4.13
2022-09-28T05:12:09.617Z,3.00
2022-09-28T05:15:14.756Z,2.55
2022-09-28T05:18:20.815Z,2.60
2022-09-28T05:21:25.931Z,2.93
2022-09-28T05:24:29.263Z,3.23
2022-09-28T05:27:34.296Z,3.55
2022-09-28T05:30:40.105Z,3.20
2022-09-28T05:33:43.607Z,3.80
2022-09-28T05:36:47.860Z,2.50
2022-09-28T05:39:50.442Z,2.80
2022-09-28T05:43:03.521Z,2.50
2022-09-28T05:46:08.001Z,2.40
2022-09-28T05:49:13.016Z,1.98
2022-09-28T05:52:17.652Z,3.00
2022-09-28T05:55:21.857Z,6.20
2022-09-28T05:58:28.971Z,6.37
2022-09-28T06:01:39.718Z,4.53
2022-09-28T06:04:52.499Z,2.95
2022-09-28T06:07:59.289Z,2.50
2022-09-28T06:11:12.882Z,1.97
2022-09-28T06:14:18.255Z,1.58
2022-09-28T06:17:22.226Z,1.55
2022-09-28T06:20:29.350Z,1.90
2022-09-28T06:23:35.502Z,1.80
2022-09-28T06:26:39.950Z,1.90
2022-09-28T06:29:46.410Z,2.17
2022-09-28T06:32:53.942Z,1.90
2022-09-28T06:35:59.516Z,1.70
2022-09-28T06:39:02.520Z,2.00
2022-09-28T06:42:05.921Z,1.80
2022-09-28T06:45:13.651Z,1.67
2022-09-28T06:48:18.201Z,1.60
2022-09-28T06:51:23.933Z,1.40
2022-09-28T06:54:28.866Z,1.70
2022-09-28T06:57:33.193Z,1.50
2022-09-28T07:00:41.733Z,1.50
2022-09-28T07:03:46.657Z,1.70
2022-09-28T07:06:52.858Z,1.67
2022-09-28T07:09:57.880Z,1.60
2022-09-28T07:13:04.815Z,1.63
2022-09-28T07:16:10.259Z,1.95
2022-09-28T07:19:16.755Z,1.15
2022-09-28T07:22:33.282Z,1.20
2022-09-28T07:25:45.555Z,0.90
2022-09-28T07:28:56.030Z,1.03
2022-09-28T07:32:01.923Z,1.30
2022-09-28T07:35:08.422Z,1.10
2022-09-28T07:38:12.990Z,1.37
2022-09-28T07:41:21.720Z,1.00
2022-09-28T07:44:26.016Z,2.10
2022-09-28T07:47:34.596Z,1.50
2022-09-28T07:50:55.264Z,1.17
2022-09-28T07:54:03.230Z,1.10
2022-09-28T07:57:09.875Z,1.13
2022-09-28T08:00:15.973Z,1.47
2022-09-28T08:03:24.846Z,1.10
2022-09-28T08:06:31.065Z,0.98
2022-09-28T08:09:36.060Z,1.40
2022-09-28T08:12:48.069Z,1.73
2022-09-28T08:16:00.012Z,1.00
2022-09-28T08:19:04.801Z,1.65
2022-09-28T08:22:10.133Z,2.10
2022-09-28T08:25:15.162Z,1.20
2022-09-28T08:28:19.626Z,0.90
2022-09-28T08:31:24.946Z,1.20
2022-09-28T08:34:31.047Z,1.52
2022-09-28T08:37:35.913Z,1.12
2022-09-28T08:41:00.240Z,1.20
2022-09-28T08:44:10.750Z,1.87
2022-09-28T08:47:41.130Z,1.87
2022-09-28T08:51:11.630Z,1.60
2022-09-28T08:54:29.615Z,1.02
2022-09-28T08:57:50.643Z,1.33
2022-09-28T09:00:55.003Z,1.10
2022-09-28T09:03:58.947Z,1.10
2022-09-28T09:07:13.044Z,1.10
2022-09-28T09:11:05.871Z,1.17
2022-09-28T09:14:23.261Z,1.12
2022-09-28T09:17:50.362Z,1.47
2022-09-28T09:20:59.547Z,1.30
2022-09-28T09:24:18.196Z,1.40
2022-09-28T09:27:21.324Z,1.23
2022-09-28T09:30:30.762Z,1.35
2022-09-28T09:33:46.956Z,1.13
2022-09-28T09:37:11.983Z,1.30
2022-09-28T09:40:43.115Z,1.52
2022-09-28T09:44:26.860Z,1.20
2022-09-28T09:47:36.159Z,1.23
2022-09-28T09:50:51.096Z,1.20
2022-09-28T09:54:06.830Z,1.23
2022-09-28T09:57:36.260Z,1.10
2022-09-28T10:00:45.677Z,1.30
2022-09-28T10:03:54.352Z,1.20
2022-09-28T10:06:59.588Z,1.33
2022-09-28T10:10:03.393Z,1.20
2022-09-28T10:13:19.866Z,1.23
2022-09-28T10:16:25.179Z,1.20
2022-09-28T10:19:32.892Z,1.73
2022-09-28T10:22:41.876Z,1.80
2022-09-28T10:25:46.658Z,2.00
2022-09-28T10:29:05.324Z,1.80
2022-09-28T10:32:19.748Z,2.20
2022-09-28T10:35:28.437Z,2.30
2022-09-28T10:38:32.233Z,2.60
2022-09-28T10:41:49.706Z,1.97
2022-09-28T10:44:57.423Z,2.10
2022-09-28T10:48:04.254Z,2.30
2022-09-28T10:51:08.939Z,1.77
2022-09-28T10:54:22.208Z,1.90
2022-09-28T10:57:45.058Z,1.80
2022-09-28T11:00:50.186Z,1.35
2022-09-28T11:04:08.160Z,1.62
2022-09-28T11:07:22.705Z,1.42
2022-09-28T11:10:27.787Z,1.63
2022-09-28T11:13:33.535Z,1.40
2022-09-28T11:16:38.038Z,1.70
2022-09-28T11:19:43.745Z,1.30
2022-09-28T11:22:52.577Z,1.80
2022-09-28T11:26:06.935Z,1.60
2022-09-28T11:29:26.845Z,1.70
2022-09-28T11:32:45.064Z,1.40
2022-09-28T11:36:00.201Z,1.35
2022-09-28T11:39:18.127Z,1.40
2022-09-28T11:42:29.707Z,1.17
2022-09-28T11:45:33.727Z,1.03
2022-09-28T11:48:43.125Z,1.30
2022-09-28T11:51:48.847Z,1.10
2022-09-28T11:54:55.808Z,1.02
2022-09-28T11:58:06.116Z,1.20
2022-09-28T12:01:28.249Z,0.97
2022-09-28T12:05:09.901Z,0.90
2022-09-28T12:08:22.561Z,1.05
2022-09-28T12:11:39.548Z,1.25
2022-09-28T12:14:45.164Z,1.10
2022-09-28T12:17:54.736Z,1.20
2022-09-28T12:21:11.266Z,0.90
2022-09-28T12:24:24.198Z,1.00
2022-09-28T12:27:33.395Z,0.70
2022-09-28T12:30:40.797Z,0.80
2022-09-28T12:33:47.472Z,1.20
2022-09-28T12:37:15.923Z,0.90
2022-09-28T12:40:18.996Z,1.02
2022-09-28T12:43:59.743Z,0.73
2022-09-28T12:47:29.897Z,0.80
2022-09-28T12:50:56.757Z,0.80
2022-09-28T12:54:11.337Z,0.82
2022-09-28T12:57:34.966Z,0.82
2022-09-28T13:01:27.746Z,0.60
2022-09-28T13:04:39.902Z,0.70
2022-09-28T13:08:13.739Z,0.63
2022-09-28T13:11:38.765Z,0.82
2022-09-28T13:14:56.072Z,0.73
2022-09-28T13:18:08.854Z,1.00
2022-09-28T13:21:41.979Z,0.90
2022-09-28T13:24:48.137Z,0.73
2022-09-28T13:28:10.988Z,1.02
2022-09-28T13:31:32.414Z,0.80
2022-09-28T13:34:37.139Z,0.60
2022-09-28T13:37:50.592Z,0.70
2022-09-28T13:41:05.203Z,0.50
2022-09-28T13:44:12.555Z,0.68
2022-09-28T13:47:39.917Z,0.70
2022-09-28T13:51:06.144Z,0.77
2022-09-28T13:54:41.536Z,0.77
2022-09-28T13:58:04.844Z,1.00
2022-09-28T14:01:22.229Z,0.60
2022-09-28T14:05:04.813Z,1.00
2022-09-28T14:08:23.752Z,0.88
2022-09-28T14:11:27.969Z,0.80
2022-09-28T14:14:51.193Z,0.70
2022-09-28T14:18:00.451Z,0.80
2022-09-28T14:21:34.849Z,0.55
2022-09-28T14:24:49.456Z,1.08
2022-09-28T14:28:01.455Z,0.90
2022-09-28T14:31:09.980Z,1.00
2022-09-28T14:34:35.857Z,0.60
2022-09-28T14:38:02.971Z,4.55
2022-09-28T14:41:14.912Z,1.17
2022-09-28T14:44:22.057Z,2.10
2022-09-28T14:47:45.893Z,0.90
2022-09-28T14:50:50.044Z,1.02
2022-09-28T14:54:12.925Z,1.65
2022-09-28T14:57:24.952Z,1.10
2022-09-28T15:00:32.938Z,1.20
2022-09-28T15:03:49.855Z,1.10
2022-09-28T15:06:56.134Z,1.05
2022-09-28T15:10:11.161Z,1.20
2022-09-28T15:13:25.250Z,1.55
2022-09-28T15:16:31.942Z,1.70
2022-09-28T15:20:03.861Z,1.93
2022-09-28T15:23:24.870Z,1.37
2022-09-28T15:26:36.728Z,1.65
2022-09-28T15:30:12.808Z,1.10
2022-09-28T15:33:44.103Z,0.97
2022-09-28T15:36:48.810Z,1.00
2022-09-28T15:39:59.155Z,1.80
2022-09-28T15:43:30.918Z,0.98
2022-09-28T15:46:38.957Z,1.00
2022-09-28T15:50:00.333Z,0.90
2022-09-28T15:53:06.134Z,1.20
2022-09-28T15:56:10.396Z,1.80
2022-09-28T15:59:14.027Z,2.53
2022-09-28T16:02:20.821Z,2.22
2022-09-28T16:05:51.058Z,1.60
2022-09-28T16:09:41.292Z,1.30
2022-09-28T16:13:09.931Z,1.15
2022-09-28T16:16:28.569Z,1.00
2022-09-28T16:19:45.019Z,1.10
2022-09-28T16:23:36.709Z,1.40
2022-09-28T16:26:40.605Z,1.30
2022-09-28T16:30:21.969Z,1.30
2022-09-28T16:33:48.938Z,2.60
2022-09-28T16:36:56.117Z,8.25
2022-09-28T16:40:00.395Z,6.40
2022-09-28T16:43:08.934Z,2.63
2022-09-28T16:46:20.903Z,2.72
2022-09-28T16:49:25.884Z,2.97
2022-09-28T16:52:55.739Z,1.77
2022-09-28T16:56:03.132Z,2.65
2022-09-28T16:59:13.640Z,12.35
2022-09-28T17:05:51.132Z,9.32
2022-09-28T17:09:07.375Z,22.57
2022-09-28T17:12:20.692Z,74.35
2022-09-28T17:15:27.370Z,73.57
2022-09-28T17:18:40.108Z,64.50
2022-09-28T17:21:52.454Z,26.58
2022-09-28T17:24:56.970Z,12.83
2022-09-28T17:28:09.847Z,7.20
2022-09-28T17:31:22.663Z,22.23
2022-09-28T17:34:38.842Z,10.52
2022-09-28T17:37:46.065Z,7.35
2022-09-28T17:40:56.152Z,5.20
2022-09-28T17:44:03.202Z,9.63
2022-09-28T17:47:17.736Z,4.03
2022-09-28T17:50:35.638Z,23.90
2022-09-28T17:53:45.984Z,14.32
2022-09-28T17:56:53.907Z,3.73
2022-09-28T18:00:02.130Z,20.85
2022-09-28T18:03:26.140Z,15.77
2022-09-28T18:06:33.931Z,41.90
2022-09-28T18:09:39.950Z,14.90
2022-09-28T18:12:49.991Z,5.90
2022-09-28T18:16:01.633Z,2.85
2022-09-28T18:19:16.635Z,2.40
2022-09-28T18:22:22.921Z,2.08
2022-09-28T18:25:39.126Z,2.00
2022-09-28T18:28:46.924Z,1.90
2022-09-28T18:31:58.949Z,2.37
2022-09-28T18:35:20.602Z,2.58
2022-09-28T18:38:36.291Z,2.60
2022-09-28T18:41:54.868Z,2.70
2022-09-28T18:45:21.851Z,6.63
2022-09-28T18:48:31.966Z,7.78
2022-09-28T18:51:37.277Z,8.65
2022-09-28T18:54:54.341Z,4.65
2022-09-28T18:58:17.892Z,3.70
2022-09-28T19:01:32.248Z,4.10
2022-09-28T19:04:36.968Z,4.60
2022-09-28T19:07:44.610Z,7.20
2022-09-28T19:11:15.053Z,7.22
2022-09-28T19:14:18.757Z,5.18
2022-09-28T19:17:22.828Z,3.30
2022-09-28T19:20:26.922Z,5.30
2022-09-28T19:23:46.871Z,5.15
2022-09-28T19:27:02.998Z,6.85
2022-09-28T19:30:19.936Z,7.15
2022-09-28T19:33:31.240Z,7.83
2022-09-28T19:36:37.876Z,7.12
2022-09-28T19:39:53.226Z,6.62
2022-09-28T19:43:02.966Z,6.20
2022-09-28T19:46:20.028Z,6.05
2022-09-28T19:49:24.935Z,5.20
2022-09-28T19:52:28.415Z,4.47
2022-09-28T19:55:36.917Z,4.65
2022-09-28T19:58:40.822Z,5.60
2022-09-28T20:01:56.386Z,7.00
2022-09-28T20:05:16.050Z,4.30
2022-09-28T20:08:24.931Z,5.57
2022-09-28T20:11:34.884Z,5.57
2022-09-28T20:14:40.442Z,4.72
2022-09-28T20:17:44.759Z,4.22
2022-09-28T20:20:49.743Z,6.27
2022-09-28T20:23:59.852Z,5.97
2022-09-28T20:27:16.056Z,10.35
2022-09-28T20:30:21.069Z,18.80
2022-09-28T20:33:28.940Z,19.65
2022-09-28T20:36:34.960Z,18.97
2022-09-28T20:39:44.107Z,17.95
2022-09-28T20:42:49.493Z,16.55
2022-09-28T20:45:53.007Z,12.02
2022-09-28T20:48:57.929Z,14.07
2022-09-28T20:52:02.904Z,11.20
2022-09-28T20:55:11.111Z,9.05
2022-09-28T20:58:14.202Z,6.62
2022-09-28T21:01:30.054Z,5.82
2022-09-28T21:04:32.848Z,7.47
2022-09-28T21:07:36.012Z,12.93
2022-09-28T21:10:45.168Z,13.40
2022-09-28T21:13:48.978Z,8.98
2022-09-28T21:16:52.620Z,4.70
2022-09-28T21:19:57.324Z,4.50
2022-09-28T21:23:00.949Z,6.67
2022-09-28T21:26:06.785Z,11.77
2022-09-28T21:29:14.284Z,10.80
2022-09-28T21:32:18.082Z,6.18
2022-09-28T21:35:21.151Z,10.77
2022-09-28T21:38:23.979Z,9.50
2022-09-28T21:41:29.192Z,9.75
2022-09-28T21:44:33.579Z,8.82
2022-09-28T21:47:36.198Z,6.05
2022-09-28T21:50:40.173Z,8.88
2022-09-28T21:53:43.296Z,7.17
2022-09-28T21:56:46.563Z,8.00
2022-09-28T21:59:49.030Z,6.62
2022-09-28T22:02:53.431Z,7.47
2022-09-28T22:05:56.880Z,7.37
2022-09-28T22:09:00.033Z,7.10
2022-09-28T22:12:03.385Z,6.00
2022-09-28T22:15:06.670Z,6.07
2022-09-28T22:18:09.387Z,5.47
2022-09-28T22:21:16.363Z,5.20
2022-09-28T22:24:19.504Z,4.43
2022-09-28T22:27:21.998Z,3.83
2022-09-28T22:30:24.982Z,4.25
2022-09-28T22:33:30.448Z,3.65
2022-09-28T22:36:33.569Z,3.80
2022-09-28T22:39:42.151Z,5.97
2022-09-28T22:42:45.544Z,5.97
2022-09-28T22:45:48.590Z,4.70
2022-09-28T22:48:54.925Z,4.55
2022-09-28T22:51:58.247Z,4.37
2022-09-28T22:55:02.036Z,3.83
2022-09-28T22:58:04.687Z,4.25
2022-09-28T23:01:15.605Z,4.60
2022-09-28T23:04:18.415Z,3.85
2022-09-28T23:07:21.527Z,3.90
2022-09-28T23:10:26.922Z,3.93
2022-09-28T23:13:32.485Z,3.80
2022-09-28T23:16:35.255Z,3.75
2022-09-28T23:19:38.043Z,3.65
2022-09-28T23:22:40.500Z,3.72
2022-09-28T23:25:43.445Z,3.57
2022-09-28T23:28:47.148Z,4.12
2022-09-28T23:31:50.918Z,3.58
2022-09-28T23:34:53.565Z,4.22
2022-09-28T23:37:56.805Z,4.28
2022-09-28T23:40:59.921Z,3.90
2022-09-28T23:44:04.159Z,4.10
2022-09-28T23:47:07.058Z,5.03
2022-09-28T23:50:10.170Z,4.60
2022-09-28T23:53:14.381Z,4.85
2022-09-28T23:56:17.362Z,3.90
2022-09-28T23:59:20.277Z,4.20
